createdAt,value
2023-04-19T04:39:21.896Z,11.90
2023-04-19T04:41:57.232Z,11.20
2023-04-19T04:44:31.149Z,11.30
2023-04-19T04:46:58.159Z,8.90
2023-04-19T04:49:26.852Z,11.60
2023-04-19T04:51:53.930Z,11.80
2023-04-19T04:54:30.244Z,11.50
2023-04-19T04:56:58.790Z,11.90
2023-04-19T04:59:34.393Z,12.00
2023-04-19T05:12:42.219Z,9.90
2023-04-19T05:45:12.954Z,8.60
2023-04-19T07:03:04.394Z,9.70
2023-04-19T07:05:31.709Z,10.90
2023-04-19T07:07:58.608Z,10.80
2023-04-19T07:10:27.950Z,10.30
2023-04-19T07:12:55.171Z,11.70
2023-04-19T07:15:24.984Z,10.80
2023-04-19T07:17:54.391Z,11.70
2023-04-19T08:08:44.362Z,10.30
2023-04-19T08:11:13.529Z,11.50
2023-04-19T08:13:40.654Z,12.30
2023-04-19T08:18:38.267Z,11.00
2023-04-19T08:21:05.556Z,11.00
2023-04-19T10:15:49.239Z,7.70
2023-04-19T10:18:52.501Z,8.30
2023-04-19T10:22:00.149Z,9.00
2023-04-19T10:31:17.306Z,10.10
2023-04-19T10:34:09.217Z,10.30
2023-04-19T10:36:37.596Z,11.60
2023-04-19T10:39:24.488Z,12.20
2023-04-19T11:34:24.706Z,15.40
2023-04-19T11:36:55.141Z,18.10
2023-04-19T11:39:22.946Z,18.20
2023-04-19T11:41:52.967Z,16.80
2023-04-19T11:44:20.267Z,16.20
2023-04-19T11:47:08.448Z,16.00
2023-04-19T11:49:35.403Z,16.60
2023-04-19T11:52:05.854Z,16.50
2023-04-19T11:54:33.413Z,16.40
2023-04-19T11:57:05.950Z,16.80
2023-04-19T12:02:05.793Z,16.60
2023-04-19T12:07:01.689Z,14.10
2023-04-19T12:09:31.224Z,15.40
2023-04-19T12:12:39.231Z,16.10
2023-04-19T12:16:02.820Z,16.20
2023-04-19T12:18:47.854Z,16.30
2023-04-19T12:21:32.534Z,17.10
2023-04-19T12:24:01.321Z,17.20
2023-04-19T12:26:29.310Z,17.00
2023-04-19T12:29:17.168Z,17.20
2023-04-19T12:31:45.101Z,17.50
2023-04-19T13:51:42.793Z,10.50
2023-04-19T13:54:21.351Z,10.20
2023-04-19T13:56:52.842Z,10.30
2023-04-19T13:59:56.201Z,8.10
2023-04-19T14:02:24.288Z,12.00
2023-04-19T14:04:52.442Z,10.20
2023-04-19T14:07:23.714Z,10.50
2023-04-19T14:46:08.597Z,12.30
2023-04-19T15:19:46.384Z,14.50
2023-04-19T15:22:13.484Z,8.90
2023-04-19T15:24:42.369Z,16.30
2023-04-19T15:27:17.403Z,16.30
2023-04-19T15:29:46.930Z,15.10
2023-04-19T15:32:13.944Z,15.80
2023-04-19T15:34:46.642Z,16.30
2023-04-19T15:40:33.508Z,15.30
2023-04-19T15:43:13.217Z,15.20
2023-04-19T17:00:39.434Z,17.50
2023-04-19T18:01:05.002Z,25.20
2023-04-19T18:03:34.224Z,25.80
2023-04-19T18:19:46.674Z,25.90
2023-04-19T18:22:22.558Z,26.90
2023-04-19T18:24:56.262Z,27.30
2023-04-19T18:27:23.162Z,27.60
2023-04-19T18:29:51.823Z,28.30
2023-04-19T18:32:21.163Z,27.30
2023-04-19T18:59:04.300Z,30.30
2023-04-19T19:26:38.923Z,32.30
2023-04-19T19:29:06.157Z,33.80
2023-04-19T19:31:33.198Z,35.10
2023-04-19T19:34:22.064Z,35.30
2023-04-19T19:36:53.455Z,36.40
2023-04-19T19:39:37.370Z,37.90
2023-04-19T19:42:06.329Z,39.60
2023-04-19T19:44:33.548Z,38.70
2023-04-19T19:47:00.649Z,37.80
2023-04-19T19:49:27.844Z,37.60
2023-04-19T19:51:59.069Z,39.20
2023-04-19T19:54:27.049Z,36.90
2023-04-19T19:57:35.636Z,39.10
2023-04-19T19:59:49.341Z,36.20
2023-04-19T20:02:19.777Z,34.80
2023-04-19T20:04:48.710Z,34.50
2023-04-19T20:10:12.400Z,33.40
2023-04-19T20:12:41.261Z,33.60
2023-04-19T20:15:11.122Z,32.70
2023-04-19T20:17:39.537Z,33.10
2023-04-19T20:20:08.365Z,33.90
2023-04-19T20:22:35.767Z,34.00
2023-04-19T20:32:03.170Z,32.60
2023-04-19T20:34:31.490Z,34.50
2023-04-19T21:29:44.054Z,30.00
2023-04-19T21:32:11.448Z,31.80
2023-04-19T21:34:38.641Z,31.20
2023-04-19T21:37:05.646Z,30.20
2023-04-19T21:39:32.982Z,31.40
2023-04-19T21:42:00.909Z,31.20
2023-04-19T21:44:28.329Z,32.00
2023-04-19T21:46:55.653Z,33.10
2023-04-19T21:49:22.545Z,33.60
2023-04-19T21:51:50.541Z,35.80
2023-04-19T21:54:23.366Z,35.20
2023-04-19T21:56:57.924Z,35.10
2023-04-19T21:59:24.997Z,35.00
2023-04-19T22:01:53.672Z,34.20
2023-04-19T22:04:23.658Z,33.10
2023-04-19T22:06:53.297Z,33.30
2023-04-19T22:09:20.332Z,33.20
2023-04-19T22:11:49.607Z,33.00
2023-04-19T22:32:04.198Z,30.00
2023-04-19T22:35:41.122Z,31.00
2023-04-19T22:38:08.200Z,31.10
2023-04-19T22:40:35.301Z,31.10
2023-04-19T22:43:02.197Z,30.40
2023-04-19T22:45:29.001Z,29.60
2023-04-19T22:47:56.097Z,31.10
2023-04-19T23:51:46.357Z,28.40
2023-04-19T23:54:34.134Z,29.40
2023-04-19T23:57:01.941Z,30.50
2023-04-19T23:59:32.294Z,32.40
